Time;durP1;ratioP1;P1;durP2;ratioP2;P2;SDS_P1;SDS_P2;PMS_P1;PMS_P2;Temp;Humidity;BMP_temperature;BMP_pressure;BME280_temperature;BME280_humidity;BME280_pressure;Samples;Min_cycle;Max_cycle;Signal;HPM_P1;HPM_P2
2023/04/27 00:01:50;;;;;;;9.35;5.65;;;;;;;;;;5016369;28;20037;-78
2023/04/27 00:04:16;;;;;;;8.77;5.07;;;;;;;;;;5014527;28;20439;-78
2023/04/27 00:06:42;;;;;;;11.07;5.30;;;;;;;;;;4996482;28;20057;-77
2023/04/27 00:09:08;;;;;;;10.02;5.18;;;;;;;;;;5005637;28;20041;-77
2023/04/27 00:11:34;;;;;;;9.77;5.50;;;;;;;;;;4996234;28;20026;-78
2023/04/27 00:14:00;;;;;;;11.57;5.80;;;;;;;;;;5014141;28;20029;-77
2023/04/27 00:16:26;;;;;;;9.88;5.30;;;;;;;;;;5015758;28;20030;-78
2023/04/27 00:18:52;;;;;;;11.90;5.82;;;;;;;;;;5016962;28;20030;-78
2023/04/27 00:21:18;;;;;;;8.63;5.22;;;;;;;;;;5015224;28;20484;-78
2023/04/27 00:23:45;;;;;;;10.52;5.00;;;;;;;;;;5015741;28;20468;-78
2023/04/27 00:26:11;;;;;;;10.55;5.05;;;;;;;;;;5015698;28;20060;-78
2023/04/27 00:28:37;;;;;;;12.90;5.55;;;;;;;;;;5020446;28;20049;-78
2023/04/27 00:31:03;;;;;;;8.25;4.95;;;;;;;;;;5034842;28;20055;-78
2023/04/27 00:36:59;;;;;;;7.50;4.97;;;;;;;;;;5006006;28;20029;-77
2023/04/27 00:39:25;;;;;;;9.95;4.47;;;;;;;;;;5015497;28;20037;-77
2023/04/27 00:42:18;;;;;;;9.07;4.53;;;;;;;;;;5014903;28;20030;-77
2023/04/27 00:44:44;;;;;;;9.50;4.53;;;;;;;;;;5015517;28;20034;-77
2023/04/27 00:47:46;;;;;;;8.93;4.55;;;;;;;;;;5033168;28;20033;-77
2023/04/27 00:50:12;;;;;;;8.98;4.53;;;;;;;;;;5027159;28;20049;-77
2023/04/27 00:52:39;;;;;;;10.60;5.28;;;;;;;;;;5016439;28;20481;-77
2023/04/27 00:55:06;;;;;;;11.90;4.93;;;;;;;;;;5015081;28;20392;-78
2023/04/27 00:57:32;;;;;;;11.60;5.57;;;;;;;;;;5015266;28;20365;-78
2023/04/27 01:00:03;;;;;;;11.45;5.22;;;;;;;;;;5011091;28;20150;-78
2023/04/27 01:02:29;;;;;;;8.45;4.80;;;;;;;;;;4995047;28;20022;-78
2023/04/27 01:04:56;;;;;;;9.07;5.15;;;;;;;;;;4995138;28;20030;-78
2023/04/27 01:07:28;;;;;;;11.45;5.00;;;;;;;;;;5002404;28;20033;-78
2023/04/27 01:09:54;;;;;;;11.90;5.00;;;;;;;;;;5014569;28;20072;-78
2023/04/27 01:12:43;;;;;;;8.95;4.32;;;;;;;;;;5014601;28;20026;-77
2023/04/27 01:15:16;;;;;;;10.60;5.15;;;;;;;;;;5017291;28;20084;-77
2023/04/27 01:17:42;;;;;;;10.35;5.05;;;;;;;;;;5034466;28;20053;-78
2023/04/27 01:20:08;;;;;;;10.32;5.05;;;;;;;;;;5034356;28;20026;-78
2023/04/27 01:22:44;;;;;;;11.57;5.80;;;;;;;;;;5017655;28;20080;-77
2023/04/27 01:25:10;;;;;;;10.05;5.35;;;;;;;;;;5015561;28;20125;-78
2023/04/27 01:27:54;;;;;;;11.35;5.43;;;;;;;;;;5011377;28;20022;-78
2023/04/27 01:30:21;;;;;;;11.98;5.50;;;;;;;;;;4999529;28;20058;-78
2023/04/27 01:32:48;;;;;;;10.75;5.15;;;;;;;;;;5014324;28;20389;-77
2023/04/27 01:35:14;;;;;;;10.10;5.53;;;;;;;;;;5015310;28;20076;-78
2023/04/27 01:37:40;;;;;;;11.63;5.68;;;;;;;;;;5015510;28;20100;-78
2023/04/27 01:40:07;;;;;;;9.65;5.30;;;;;;;;;;5014052;28;20026;-77
2023/04/27 01:42:33;;;;;;;14.10;5.57;;;;;;;;;;5013859;28;20358;-77
2023/04/27 01:44:59;;;;;;;12.95;5.68;;;;;;;;;;5015459;28;20535;-77
2023/04/27 01:47:25;;;;;;;8.27;4.63;;;;;;;;;;5014045;28;20028;-77
2023/04/27 01:49:51;;;;;;;10.23;4.75;;;;;;;;;;5014747;28;20396;-78
2023/04/27 01:52:17;;;;;;;11.30;5.72;;;;;;;;;;5013736;28;20083;-78
2023/04/27 01:54:43;;;;;;;13.35;5.38;;;;;;;;;;5015109;28;20109;-78
2023/04/27 01:57:09;;;;;;;8.55;5.13;;;;;;;;;;5013812;28;20053;-78
2023/04/27 01:59:35;;;;;;;13.88;5.68;;;;;;;;;;4994559;28;20034;-78
2023/04/27 02:02:01;;;;;;;13.88;4.82;;;;;;;;;;4994855;28;20447;-78
2023/04/27 02:04:27;;;;;;;8.13;4.72;;;;;;;;;;4993885;28;20030;-78
2023/04/27 02:06:53;;;;;;;9.80;4.90;;;;;;;;;;4997440;28;20031;-78
2023/04/27 02:09:19;;;;;;;10.65;5.30;;;;;;;;;;5015025;28;20424;-78
2023/04/27 02:11:45;;;;;;;10.45;5.20;;;;;;;;;;5013604;28;20033;-78
2023/04/27 02:14:11;;;;;;;11.48;5.20;;;;;;;;;;5014000;28;20104;-78
2023/04/27 02:16:37;;;;;;;9.65;5.32;;;;;;;;;;5014860;28;20061;-78
2023/04/27 02:19:03;;;;;;;13.43;5.57;;;;;;;;;;5013737;28;20022;-78
2023/04/27 02:21:29;;;;;;;9.18;4.72;;;;;;;;;;5014443;28;20030;-78
2023/04/27 02:23:55;;;;;;;9.48;4.78;;;;;;;;;;5013707;28;20087;-77
2023/04/27 02:26:35;;;;;;;10.25;4.72;;;;;;;;;;5014515;28;20061;-78
2023/04/27 02:29:26;;;;;;;10.65;5.35;;;;;;;;;;5013673;28;20034;-78
2023/04/27 02:31:59;;;;;;;13.20;4.90;;;;;;;;;;5012937;28;20049;-78
2023/04/27 02:34:25;;;;;;;9.10;4.10;;;;;;;;;;5013323;28;20029;-78
2023/04/27 02:36:51;;;;;;;8.15;4.80;;;;;;;;;;5012920;28;20025;-78
2023/04/27 02:39:17;;;;;;;9.30;4.60;;;;;;;;;;5027290;28;20033;-78
2023/04/27 02:41:43;;;;;;;10.55;5.20;;;;;;;;;;5034092;28;20678;-78
2023/04/27 02:44:09;;;;;;;10.23;5.15;;;;;;;;;;5028343;28;20037;-78
2023/04/27 02:46:35;;;;;;;13.18;4.93;;;;;;;;;;5012730;28;20029;-78
2023/04/27 02:49:01;;;;;;;10.15;4.30;;;;;;;;;;5024277;28;20056;-77
2023/04/27 02:51:27;;;;;;;8.38;4.63;;;;;;;;;;5015258;28;20028;-78
2023/04/27 02:53:53;;;;;;;8.35;4.25;;;;;;;;;;5013267;28;20026;-78
2023/04/27 02:56:19;;;;;;;9.10;4.45;;;;;;;;;;5013263;28;20533;-78
2023/04/27 02:58:46;;;;;;;9.85;4.50;;;;;;;;;;5015030;28;20030;-77
2023/04/27 03:01:12;;;;;;;11.52;5.38;;;;;;;;;;5034773;28;20148;-78
2023/04/27 03:03:38;;;;;;;9.80;5.22;;;;;;;;;;5032578;28;20604;-78
2023/04/27 03:06:04;;;;;;;10.85;5.00;;;;;;;;;;5022392;28;20030;-78
2023/04/27 03:09:00;;;;;;;8.00;4.50;;;;;;;;;;5012323;28;20026;-78
2023/04/27 03:11:26;;;;;;;10.18;4.50;;;;;;;;;;5013737;28;20026;-78
2023/04/27 03:13:51;;;;;;;11.80;5.85;;;;;;;;;;5013737;28;20033;-79
2023/04/27 03:16:17;;;;;;;9.15;5.05;;;;;;;;;;5014122;28;20088;-79
2023/04/27 03:18:43;;;;;;;8.32;4.32;;;;;;;;;;5006916;28;20385;-77
2023/04/27 03:21:10;;;;;;;9.38;4.88;;;;;;;;;;4993116;28;20030;-77
2023/04/27 03:23:37;;;;;;;7.30;3.90;;;;;;;;;;5010689;28;20029;-77
2023/04/27 03:26:10;;;;;;;7.88;4.20;;;;;;;;;;5012462;28;20099;-77
2023/04/27 03:28:36;;;;;;;11.23;3.90;;;;;;;;;;5016786;28;20485;-77
2023/04/27 03:31:06;;;;;;;5.70;3.53;;;;;;;;;;5015946;28;20061;-77
2023/04/27 03:33:32;;;;;;;6.78;4.47;;;;;;;;;;4997876;28;20030;-77
2023/04/27 03:35:58;;;;;;;7.45;4.03;;;;;;;;;;4996842;28;20026;-77
2023/04/27 03:38:25;;;;;;;8.43;3.78;;;;;;;;;;4998747;28;20061;-77
2023/04/27 03:40:51;;;;;;;8.30;4.30;;;;;;;;;;5030792;28;20029;-76
2023/04/27 03:43:18;;;;;;;7.00;3.60;;;;;;;;;;5017514;28;20030;-76
2023/04/27 03:45:44;;;;;;;6.00;3.42;;;;;;;;;;5016267;28;20029;-77
2023/04/27 03:48:10;;;;;;;6.07;3.40;;;;;;;;;;5017507;28;20041;-77
2023/04/27 03:50:36;;;;;;;5.88;3.47;;;;;;;;;;5017669;28;20061;-77
2023/04/27 03:53:02;;;;;;;7.60;3.47;;;;;;;;;;5016173;28;20026;-77
2023/04/27 03:55:28;;;;;;;7.80;3.72;;;;;;;;;;5030810;28;20036;-77
2023/04/27 03:57:54;;;;;;;6.75;3.65;;;;;;;;;;5024184;28;20375;-76
2023/04/27 04:00:20;;;;;;;7.43;3.80;;;;;;;;;;5015823;28;20043;-77
2023/04/27 04:02:46;;;;;;;7.38;3.70;;;;;;;;;;5016335;28;20037;-77
2023/04/27 04:05:14;;;;;;;12.25;4.10;;;;;;;;;;5015869;28;20037;-77
2023/04/27 04:07:40;;;;;;;9.23;3.67;;;;;;;;;;5015816;28;20026;-77
2023/04/27 04:10:07;;;;;;;7.22;3.53;;;;;;;;;;5016769;28;20085;-77
2023/04/27 04:12:33;;;;;;;11.63;4.32;;;;;;;;;;5016855;28;20080;-77
2023/04/27 04:14:59;;;;;;;11.52;4.25;;;;;;;;;;5015612;28;20775;-77
2023/04/27 04:17:25;;;;;;;7.20;4.07;;;;;;;;;;5015320;28;20026;-77
2023/04/27 04:19:51;;;;;;;10.57;4.28;;;;;;;;;;5015578;28;20706;-77
2023/04/27 04:22:17;;;;;;;7.78;4.13;;;;;;;;;;5015622;28;20026;-79
2023/04/27 04:24:43;;;;;;;7.80;3.70;;;;;;;;;;5016726;28;20533;-79
2023/04/27 04:27:09;;;;;;;12.50;4.70;;;;;;;;;;5018040;28;20105;-79
2023/04/27 04:29:36;;;;;;;10.77;4.30;;;;;;;;;;5016770;28;20045;-79
2023/04/27 04:32:21;;;;;;;14.13;4.72;;;;;;;;;;5016081;28;20050;-76
2023/04/27 04:34:50;;;;;;;7.95;3.83;;;;;;;;;;4999880;28;20080;-79
2023/04/27 04:37:17;;;;;;;9.10;3.90;;;;;;;;;;5006022;28;20167;-77
2023/04/27 04:39:43;;;;;;;7.50;3.97;;;;;;;;;;5020909;28;20022;-77
2023/04/27 04:42:09;;;;;;;6.28;3.53;;;;;;;;;;5036321;28;20526;-77
2023/04/27 04:44:35;;;;;;;11.43;4.30;;;;;;;;;;5021972;28;20034;-77
2023/04/27 04:47:01;;;;;;;10.30;4.13;;;;;;;;;;5015169;28;20030;-77
2023/04/27 04:49:27;;;;;;;9.23;4.20;;;;;;;;;;4998211;28;20034;-77
2023/04/27 04:51:53;;;;;;;8.73;4.40;;;;;;;;;;4995545;28;20150;-77
2023/04/27 04:54:19;;;;;;;7.38;3.63;;;;;;;;;;5001475;28;20030;-77
2023/04/27 04:56:45;;;;;;;11.05;4.30;;;;;;;;;;5016221;28;20118;-77
2023/04/27 04:59:11;;;;;;;10.32;4.32;;;;;;;;;;5014091;28;20500;-77
2023/04/27 05:01:37;;;;;;;7.78;4.05;;;;;;;;;;4996814;28;20034;-77
2023/04/27 05:04:03;;;;;;;10.55;4.10;;;;;;;;;;5006450;28;20033;-77
2023/04/27 05:06:29;;;;;;;6.80;3.95;;;;;;;;;;5016801;28;20060;-77
2023/04/27 05:08:55;;;;;;;11.57;4.20;;;;;;;;;;5009365;28;20030;-77
2023/04/27 05:11:21;;;;;;;10.77;4.20;;;;;;;;;;4994984;28;20027;-77
2023/04/27 05:14:03;;;;;;;7.97;4.20;;;;;;;;;;4997404;28;20030;-77
2023/04/27 05:16:29;;;;;;;9.57;4.05;;;;;;;;;;5015061;28;20595;-77
2023/04/27 05:18:55;;;;;;;10.77;4.15;;;;;;;;;;4994973;28;20037;-77
2023/04/27 05:21:21;;;;;;;8.77;3.90;;;;;;;;;;4995088;28;20500;-77
2023/04/27 05:23:47;;;;;;;9.20;4.45;;;;;;;;;;4996087;28;20026;-77
2023/04/27 05:26:14;;;;;;;8.77;4.38;;;;;;;;;;4996070;28;20108;-77
2023/04/27 05:28:40;;;;;;;13.57;4.35;;;;;;;;;;4995760;28;20026;-77
2023/04/27 05:31:07;;;;;;;10.13;4.13;;;;;;;;;;5019442;28;20054;-77
2023/04/27 05:33:32;;;;;;;8.50;3.72;;;;;;;;;;5017421;28;20029;-77
2023/04/27 05:35:58;;;;;;;7.95;3.30;;;;;;;;;;5017402;28;20032;-78
2023/04/27 05:38:25;;;;;;;6.90;3.33;;;;;;;;;;5029619;28;20473;-78
2023/04/27 05:40:57;;;;;;;5.85;3.67;;;;;;;;;;5014656;28;20034;-77
2023/04/27 05:43:24;;;;;;;4.25;3.00;;;;;;;;;;5015601;28;20049;-77
2023/04/27 05:45:50;;;;;;;4.35;3.22;;;;;;;;;;5044388;28;20432;-77
2023/04/27 05:48:16;;;;;;;5.15;3.13;;;;;;;;;;5035587;28;20495;-77
2023/04/27 05:50:42;;;;;;;4.38;3.00;;;;;;;;;;5016556;28;20026;-78
2023/04/27 05:53:08;;;;;;;5.40;3.35;;;;;;;;;;5044107;28;20021;-77
2023/04/27 05:55:34;;;;;;;4.50;2.80;;;;;;;;;;5037608;28;20029;-78
2023/04/27 05:58:00;;;;;;;3.55;2.55;;;;;;;;;;5055590;28;20356;-77
2023/04/27 06:00:38;;;;;;;3.75;2.65;;;;;;;;;;5055486;28;20021;-78
2023/04/27 06:03:04;;;;;;;3.85;2.45;;;;;;;;;;5027779;28;20042;-78
2023/04/27 06:05:30;;;;;;;5.07;2.78;;;;;;;;;;5035667;28;20049;-78
2023/04/27 06:07:56;;;;;;;3.20;2.90;;;;;;;;;;5008079;28;20026;-78
2023/04/27 06:10:22;;;;;;;4.97;3.10;;;;;;;;;;5016022;28;20026;-78
2023/04/27 06:12:48;;;;;;;4.18;2.50;;;;;;;;;;5015758;28;20058;-78
2023/04/27 06:15:14;;;;;;;4.43;2.75;;;;;;;;;;5037690;28;20083;-78
2023/04/27 06:17:42;;;;;;;3.42;2.65;;;;;;;;;;5036131;28;20076;-78
2023/04/27 06:20:08;;;;;;;6.13;3.13;;;;;;;;;;5035388;28;20014;-78
2023/04/27 06:22:38;;;;;;;3.60;2.80;;;;;;;;;;5035800;28;20069;-78
2023/04/27 06:25:04;;;;;;;7.83;3.13;;;;;;;;;;5034858;28;20014;-78
2023/04/27 06:27:30;;;;;;;3.45;2.80;;;;;;;;;;5035514;28;20414;-78
2023/04/27 06:29:56;;;;;;;4.70;3.22;;;;;;;;;;5034773;28;20033;-78
2023/04/27 06:32:22;;;;;;;5.82;2.95;;;;;;;;;;5034389;28;20506;-79
2023/04/27 06:34:48;;;;;;;6.40;3.17;;;;;;;;;;5034134;28;20022;-78
2023/04/27 06:37:16;;;;;;;4.13;3.08;;;;;;;;;;5034947;28;20048;-78
2023/04/27 06:39:43;;;;;;;5.00;3.13;;;;;;;;;;5034217;28;20497;-78
2023/04/27 06:42:16;;;;;;;4.50;2.85;;;;;;;;;;5033891;28;20068;-77
2023/04/27 06:44:42;;;;;;;3.35;2.50;;;;;;;;;;5016960;28;20025;-77
2023/04/27 06:47:08;;;;;;;8.25;3.05;;;;;;;;;;5015046;28;20032;-77
2023/04/27 06:49:34;;;;;;;3.13;2.08;;;;;;;;;;5014365;28;20112;-78
2023/04/27 06:52:01;;;;;;;4.80;2.58;;;;;;;;;;4996731;28;20121;-77
2023/04/27 06:54:27;;;;;;;3.58;2.58;;;;;;;;;;5010742;28;20033;-78
2023/04/27 06:56:53;;;;;;;2.80;2.50;;;;;;;;;;5036686;28;20025;-78
2023/04/27 06:59:20;;;;;;;3.60;2.70;;;;;;;;;;5035703;28;20029;-78
2023/04/27 07:01:46;;;;;;;5.30;2.30;;;;;;;;;;5035831;28;20024;-78
2023/04/27 07:04:12;;;;;;;4.03;2.35;;;;;;;;;;5018955;28;20063;-78
2023/04/27 07:06:38;;;;;;;3.85;2.50;;;;;;;;;;5016237;28;20061;-78
2023/04/27 07:09:09;;;;;;;3.72;2.28;;;;;;;;;;5033807;28;20069;-78
2023/04/27 07:11:35;;;;;;;2.42;2.10;;;;;;;;;;5017145;28;20448;-78
2023/04/27 07:14:01;;;;;;;5.32;2.40;;;;;;;;;;5016348;28;20117;-78
2023/04/27 07:16:27;;;;;;;4.00;2.00;;;;;;;;;;5025907;28;20021;-78
2023/04/27 07:18:53;;;;;;;2.78;1.85;;;;;;;;;;5036003;28;20033;-78
2023/04/27 07:21:19;;;;;;;2.05;1.65;;;;;;;;;;5027042;28;20116;-79
2023/04/27 07:23:45;;;;;;;2.63;1.63;;;;;;;;;;5016274;28;20034;-78
2023/04/27 07:26:11;;;;;;;3.72;1.90;;;;;;;;;;5026396;28;20025;-79
2023/04/27 07:28:38;;;;;;;2.30;1.50;;;;;;;;;;5036693;28;20486;-79
2023/04/27 07:31:04;;;;;;;2.85;1.90;;;;;;;;;;5037692;28;20042;-79
2023/04/27 07:33:30;;;;;;;2.72;1.63;;;;;;;;;;4997459;28;20049;-79
2023/04/27 07:35:56;;;;;;;4.75;1.98;;;;;;;;;;4997297;28;20026;-79
2023/04/27 07:38:23;;;;;;;4.30;1.65;;;;;;;;;;5015146;28;20091;-79
2023/04/27 07:40:50;;;;;;;4.25;1.80;;;;;;;;;;5016376;28;20634;-79
2023/04/27 07:43:17;;;;;;;2.90;1.70;;;;;;;;;;5017186;28;20487;-79
2023/04/27 07:45:49;;;;;;;4.47;1.77;;;;;;;;;;5017942;28;20376;-79
2023/04/27 07:48:15;;;;;;;4.32;1.75;;;;;;;;;;5008256;28;20121;-79
2023/04/27 07:50:41;;;;;;;5.32;2.65;;;;;;;;;;5002411;28;20064;-79
2023/04/27 07:53:07;;;;;;;2.97;2.05;;;;;;;;;;5017606;28;20088;-79
2023/04/27 07:55:33;;;;;;;5.32;3.55;;;;;;;;;;5028662;28;20086;-79
2023/04/27 07:57:59;;;;;;;2.97;2.08;;;;;;;;;;5025216;28;20400;-79
2023/04/27 08:00:25;;;;;;;4.75;2.10;;;;;;;;;;5018185;28;20060;-79
2023/04/27 08:02:52;;;;;;;2.83;2.08;;;;;;;;;;5017375;28;20030;-79
2023/04/27 08:05:18;;;;;;;4.18;1.75;;;;;;;;;;5016738;28;20076;-80
2023/04/27 08:07:45;;;;;;;4.60;2.30;;;;;;;;;;5016966;28;20033;-79
2023/04/27 08:10:11;;;;;;;3.53;1.90;;;;;;;;;;5009618;28;20060;-80
2023/04/27 08:12:37;;;;;;;3.92;2.03;;;;;;;;;;5008386;28;20021;-80
2023/04/27 08:15:04;;;;;;;3.13;1.92;;;;;;;;;;5026348;28;20052;-79
2023/04/27 08:17:30;;;;;;;6.57;2.20;;;;;;;;;;5024206;28;20026;-79
2023/04/27 08:19:56;;;;;;;2.47;1.70;;;;;;;;;;5025960;28;20048;-78
2023/04/27 08:22:22;;;;;;;3.45;1.70;;;;;;;;;;5029379;28;20034;-79
2023/04/27 08:24:48;;;;;;;2.70;1.77;;;;;;;;;;5013840;28;20030;-79
2023/04/27 08:27:15;;;;;;;3.78;2.00;;;;;;;;;;5030263;28;20037;-79
2023/04/27 08:29:47;;;;;;;3.83;1.77;;;;;;;;;;5029690;28;20037;-79
2023/04/27 08:32:20;;;;;;;3.72;1.67;;;;;;;;;;5015713;28;20057;-79
2023/04/27 08:34:47;;;;;;;3.40;1.73;;;;;;;;;;5001418;28;20030;-79
2023/04/27 08:37:12;;;;;;;3.50;1.80;;;;;;;;;;5016674;28;20033;-79
2023/04/27 08:39:39;;;;;;;2.22;1.90;;;;;;;;;;5011228;28;20088;-79
2023/04/27 08:42:11;;;;;;;3.10;1.90;;;;;;;;;;5009249;28;20052;-79
2023/04/27 08:44:41;;;;;;;4.38;1.85;;;;;;;;;;5016182;28;20025;-79
2023/04/27 08:47:08;;;;;;;3.33;1.67;;;;;;;;;;5012290;28;20022;-80
2023/04/27 08:49:34;;;;;;;6.18;1.73;;;;;;;;;;4996901;28;20038;-79
2023/04/27 08:52:01;;;;;;;3.53;1.50;;;;;;;;;;5005195;28;20026;-79
2023/04/27 08:54:27;;;;;;;2.90;1.67;;;;;;;;;;5033355;28;20494;-80
2023/04/27 08:56:53;;;;;;;2.35;1.73;;;;;;;;;;5017261;28;20038;-80
2023/04/27 08:59:19;;;;;;;3.10;1.77;;;;;;;;;;5022074;28;20145;-79
2023/04/27 09:01:47;;;;;;;2.45;1.63;;;;;;;;;;5026041;28;20026;-79
2023/04/27 09:04:19;;;;;;;2.55;1.40;;;;;;;;;;5016177;28;20053;-79
2023/04/27 09:06:45;;;;;;;2.38;1.63;;;;;;;;;;5015272;28;20033;-79
2023/04/27 09:09:21;;;;;;;2.60;1.55;;;;;;;;;;5015567;28;20034;-79
2023/04/27 09:11:48;;;;;;;2.67;1.45;;;;;;;;;;5029725;28;20029;-79
2023/04/27 09:14:15;;;;;;;3.83;1.52;;;;;;;;;;5034733;28;20026;-79
2023/04/27 09:16:42;;;;;;;5.22;1.77;;;;;;;;;;5024370;28;20065;-79
2023/04/27 09:19:08;;;;;;;4.05;1.55;;;;;;;;;;5014641;28;20034;-79
2023/04/27 09:21:34;;;;;;;1.92;1.40;;;;;;;;;;5014779;28;20030;-79
2023/04/27 09:24:09;;;;;;;2.70;1.75;;;;;;;;;;5016450;28;20022;-79
2023/04/27 09:26:36;;;;;;;2.78;1.80;;;;;;;;;;5015196;28;20431;-79
2023/04/27 09:29:02;;;;;;;2.05;1.30;;;;;;;;;;5026668;28;20036;-79
2023/04/27 09:31:32;;;;;;;2.88;1.73;;;;;;;;;;5014868;28;20045;-80
2023/04/27 09:33:58;;;;;;;;;;;;;;;;;;5016261;28;20064;-79
2023/04/27 09:36:24;;;;;;;1.92;1.48;;;;;;;;;;5015637;28;19909;-79
2023/04/27 09:38:52;;;;;;;2.10;1.50;;;;;;;;;;5020445;28;20033;-79
2023/04/27 09:41:24;;;;;;;2.55;1.55;;;;;;;;;;5016878;28;20037;-79
2023/04/27 09:43:50;;;;;;;2.47;1.60;;;;;;;;;;5014493;28;20022;-79
2023/04/27 09:46:16;;;;;;;1.67;1.48;;;;;;;;;;5015620;28;20030;-78
2023/04/27 09:48:42;;;;;;;2.25;1.60;;;;;;;;;;5025202;28;20084;-78
2023/04/27 09:51:08;;;;;;;4.90;1.88;;;;;;;;;;5026338;28;20029;-77
2023/04/27 09:53:44;;;;;;;6.65;3.15;;;;;;;;;;5014641;28;20556;-78
2023/04/27 09:56:30;;;;;;;7.32;2.92;;;;;;;;;;5009133;28;20079;-78
2023/04/27 09:59:06;;;;;;;5.50;2.15;;;;;;;;;;5025594;28;20035;-78
2023/04/27 10:01:40;;;;;;;4.85;2.72;;;;;;;;;;5017239;28;20066;-79
2023/04/27 10:04:26;;;;;;;5.90;3.72;;;;;;;;;;5027588;28;20029;-79
2023/04/27 10:07:02;;;;;;;4.32;3.10;;;;;;;;;;5015910;28;20034;-78
2023/04/27 10:09:34;;;;;;;4.32;3.30;;;;;;;;;;5018295;28;20399;-78
2023/04/27 10:12:13;;;;;;;3.70;2.00;;;;;;;;;;5030292;28;20512;-78
2023/04/27 10:14:47;;;;;;;5.25;2.50;;;;;;;;;;5004519;28;20037;-78
2023/04/27 10:17:13;;;;;;;3.92;1.75;;;;;;;;;;4994667;28;20170;-78
2023/04/27 10:19:39;;;;;;;6.35;1.83;;;;;;;;;;5013622;28;20069;-77
2023/04/27 10:22:14;;;;;;;3.67;1.90;;;;;;;;;;5015071;28;20096;-78
2023/04/27 10:24:43;;;;;;;4.38;1.92;;;;;;;;;;5018282;28;20074;-78
2023/04/27 10:27:11;;;;;;;4.43;2.22;;;;;;;;;;5035395;28;20375;-78
2023/04/27 10:29:37;;;;;;;17.80;3.00;;;;;;;;;;5018601;28;20427;-78
2023/04/27 10:32:26;;;;;;;3.95;2.78;;;;;;;;;;5031683;28;20061;-81
2023/04/27 10:35:02;;;;;;;4.68;2.75;;;;;;;;;;5008736;28;20457;-80
2023/04/27 10:37:38;;;;;;;4.55;2.67;;;;;;;;;;5053300;28;20028;-80
2023/04/27 10:40:06;;;;;;;3.42;2.42;;;;;;;;;;5040125;28;20033;-80
2023/04/27 10:42:32;;;;;;;5.32;2.60;;;;;;;;;;5022948;28;20468;-80
2023/04/27 10:44:59;;;;;;;4.15;2.00;;;;;;;;;;5035953;28;20025;-82
2023/04/27 10:47:35;;;;;;;3.17;1.92;;;;;;;;;;5021497;28;20033;-80
2023/04/27 10:50:02;;;;;;;6.20;2.80;;;;;;;;;;5038862;28;20079;-80
2023/04/27 10:52:28;;;;;;;4.15;2.00;;;;;;;;;;5020667;28;20021;-80
2023/04/27 10:54:54;;;;;;;2.50;1.90;;;;;;;;;;5019973;28;20030;-80
2023/04/27 10:57:20;;;;;;;5.18;2.20;;;;;;;;;;5037632;28;20026;-80
2023/04/27 10:59:50;;;;;;;5.05;2.30;;;;;;;;;;5024725;28;20523;-80
2023/04/27 11:02:16;;;;;;;6.47;2.30;;;;;;;;;;5024546;28;20060;-80
2023/04/27 11:04:44;;;;;;;5.93;2.42;;;;;;;;;;5010695;28;20030;-80
2023/04/27 11:07:11;;;;;;;4.25;2.58;;;;;;;;;;5025175;28;20093;-80
2023/04/27 11:09:37;;;;;;;3.90;2.30;;;;;;;;;;5053092;28;20052;-80
2023/04/27 11:12:06;;;;;;;4.40;2.47;;;;;;;;;;5027876;28;20028;-80
2023/04/27 11:14:34;;;;;;;4.25;2.50;;;;;;;;;;5037599;28;20032;-78
2023/04/27 11:17:00;;;;;;;4.35;2.70;;;;;;;;;;5020097;28;20030;-80
2023/04/27 11:19:26;;;;;;;3.80;2.78;;;;;;;;;;5024413;28;20360;-80
2023/04/27 11:21:52;;;;;;;4.53;2.70;;;;;;;;;;5050602;28;20057;-80
2023/04/27 11:24:18;;;;;;;5.35;2.78;;;;;;;;;;5025868;28;20077;-80
2023/04/27 11:26:50;;;;;;;3.30;2.78;;;;;;;;;;5050193;28;20029;-80
2023/04/27 11:29:16;;;;;;;2.95;2.60;;;;;;;;;;5036553;28;20463;-80
2023/04/27 11:31:52;;;;;;;4.95;2.80;;;;;;;;;;5014588;28;20496;-80
2023/04/27 11:34:22;;;;;;;3.42;2.80;;;;;;;;;;5018326;28;20033;-80
2023/04/27 11:37:05;;;;;;;4.22;2.90;;;;;;;;;;5018700;28;20029;-80
2023/04/27 11:39:35;;;;;;;5.20;3.10;;;;;;;;;;5006640;28;20038;-80
2023/04/27 11:42:21;;;;;;;4.53;2.50;;;;;;;;;;5013348;28;20021;-80
2023/04/27 11:44:59;;;;;;;3.83;2.50;;;;;;;;;;5021146;28;20036;-79
2023/04/27 11:47:27;;;;;;;4.20;2.67;;;;;;;;;;5025798;28;20680;-79
2023/04/27 11:49:57;;;;;;;4.10;2.58;;;;;;;;;;5019039;28;20037;-80
2023/04/27 11:52:33;;;;;;;5.00;2.78;;;;;;;;;;5030828;28;20365;-79
2023/04/27 11:55:00;;;;;;;3.90;2.53;;;;;;;;;;5016430;28;20120;-79
2023/04/27 11:57:27;;;;;;;3.35;2.78;;;;;;;;;;5018478;28;20097;-79
2023/04/27 11:59:53;;;;;;;3.13;2.65;;;;;;;;;;5019101;28;20036;-78
2023/04/27 12:02:21;;;;;;;4.32;2.92;;;;;;;;;;5017439;28;20037;-79
2023/04/27 12:04:47;;;;;;;6.22;3.03;;;;;;;;;;5018521;28;20555;-79
2023/04/27 12:07:13;;;;;;;4.65;2.55;;;;;;;;;;5017549;28;20050;-79
2023/04/27 12:09:39;;;;;;;4.60;3.28;;;;;;;;;;5018173;28;20034;-79
2023/04/27 12:12:06;;;;;;;4.95;2.72;;;;;;;;;;5019007;28;20022;-79
2023/04/27 12:14:32;;;;;;;3.80;2.90;;;;;;;;;;5018566;28;20115;-78
2023/04/27 12:16:58;;;;;;;4.00;2.90;;;;;;;;;;5018373;28;20466;-79
2023/04/27 12:19:27;;;;;;;5.93;3.22;;;;;;;;;;5000836;28;20120;-79
2023/04/27 12:21:53;;;;;;;5.65;3.00;;;;;;;;;;5017405;28;20022;-79
2023/04/27 12:24:19;;;;;;;4.63;3.30;;;;;;;;;;5020706;28;20037;-78
2023/04/27 12:26:45;;;;;;;3.80;2.85;;;;;;;;;;5016298;28;20022;-77
2023/04/27 12:29:12;;;;;;;7.32;3.15;;;;;;;;;;5003211;28;20032;-77
2023/04/27 12:31:38;;;;;;;5.07;3.35;;;;;;;;;;5026558;28;20500;-79
2023/04/27 12:34:05;;;;;;;5.40;3.40;;;;;;;;;;5017667;28;20476;-78
2023/04/27 12:36:31;;;;;;;4.03;3.53;;;;;;;;;;5016896;28;20101;-79
2023/04/27 12:38:58;;;;;;;5.50;3.20;;;;;;;;;;5024566;28;20380;-78
2023/04/27 12:41:24;;;;;;;5.78;3.58;;;;;;;;;;5023963;28;20041;-78
2023/04/27 12:43:50;;;;;;;5.63;3.25;;;;;;;;;;5035603;28;20100;-79
2023/04/27 12:46:17;;;;;;;4.00;2.90;;;;;;;;;;5035958;28;20511;-79
2023/04/27 12:48:43;;;;;;;5.13;2.92;;;;;;;;;;5035971;28;20010;-79
2023/04/27 12:51:09;;;;;;;4.28;2.38;;;;;;;;;;5036095;28;20074;-79
2023/04/27 12:53:35;;;;;;;5.22;3.20;;;;;;;;;;5049417;28;20502;-79
2023/04/27 12:56:03;;;;;;;5.00;3.30;;;;;;;;;;5055864;28;20022;-80
2023/04/27 12:58:30;;;;;;;3.97;2.92;;;;;;;;;;5037452;28;20032;-79
2023/04/27 13:00:56;;;;;;;7.07;3.97;;;;;;;;;;5055597;28;20033;-79
2023/04/27 13:03:23;;;;;;;7.03;3.53;;;;;;;;;;5041876;28;20400;-79
2023/04/27 13:05:49;;;;;;;6.95;3.55;;;;;;;;;;5056479;28;20048;-80
2023/04/27 13:08:15;;;;;;;4.35;3.08;;;;;;;;;;5054350;28;20387;-80
2023/04/27 13:10:41;;;;;;;3.83;3.40;;;;;;;;;;5035948;28;20029;-79
2023/04/27 13:13:23;;;;;;;7.28;3.47;;;;;;;;;;5037031;28;20026;-79
2023/04/27 13:15:50;;;;;;;4.85;3.20;;;;;;;;;;5028604;28;20036;-80
2023/04/27 13:18:15;;;;;;;7.07;3.30;;;;;;;;;;5038103;28;20030;-80
2023/04/27 13:20:42;;;;;;;8.30;3.45;;;;;;;;;;5055375;28;20040;-80
2023/04/27 13:23:09;;;;;;;5.72;3.65;;;;;;;;;;5055690;28;20051;-80
2023/04/27 13:25:35;;;;;;;4.32;3.38;;;;;;;;;;5056071;28;20168;-80
2023/04/27 13:28:01;;;;;;;3.65;3.10;;;;;;;;;;5039204;28;20056;-79
2023/04/27 13:30:27;;;;;;;4.75;3.63;;;;;;;;;;5035296;28;20068;-80
2023/04/27 13:32:53;;;;;;;5.32;3.58;;;;;;;;;;5049182;28;20448;-80
2023/04/27 13:35:19;;;;;;;7.60;4.05;;;;;;;;;;5027538;28;20025;-80
2023/04/27 13:37:46;;;;;;;4.03;3.28;;;;;;;;;;5035728;28;20021;-80
2023/04/27 13:40:13;;;;;;;4.85;3.95;;;;;;;;;;5035964;28;20041;-80
2023/04/27 13:42:39;;;;;;;7.18;3.17;;;;;;;;;;5035331;28;20056;-80
2023/04/27 13:45:05;;;;;;;5.38;4.07;;;;;;;;;;5053372;28;20032;-81
2023/04/27 13:47:37;;;;;;;6.07;3.90;;;;;;;;;;5044626;28;20029;-80
2023/04/27 13:50:05;;;;;;;6.22;3.65;;;;;;;;;;5037686;28;20476;-80
2023/04/27 13:52:31;;;;;;;7.13;4.05;;;;;;;;;;5044460;28;20061;-80
2023/04/27 13:55:09;;;;;;;6.28;3.97;;;;;;;;;;5053402;28;20026;-80
2023/04/27 13:57:35;;;;;;;6.32;4.18;;;;;;;;;;5036135;28;20056;-80
2023/04/27 14:00:01;;;;;;;4.93;3.92;;;;;;;;;;5017324;28;20034;-80
2023/04/27 14:02:28;;;;;;;9.93;3.63;;;;;;;;;;5052998;28;20025;-81
2023/04/27 14:04:55;;;;;;;5.07;3.78;;;;;;;;;;5054464;28;20035;-80
2023/04/27 14:07:21;;;;;;;7.22;3.85;;;;;;;;;;5020225;28;20029;-80
2023/04/27 14:09:47;;;;;;;6.15;3.85;;;;;;;;;;5034022;28;20059;-80
2023/04/27 14:12:13;;;;;;;5.55;3.67;;;;;;;;;;5034202;28;20556;-80
2023/04/27 14:14:39;;;;;;;4.93;3.75;;;;;;;;;;5037755;28;20022;-80
2023/04/27 14:17:05;;;;;;;6.85;3.60;;;;;;;;;;5037337;28;20101;-80
2023/04/27 14:19:31;;;;;;;5.03;4.13;;;;;;;;;;5027767;28;20492;-80
2023/04/27 14:21:58;;;;;;;7.15;3.90;;;;;;;;;;5038857;28;20387;-79
2023/04/27 14:24:24;;;;;;;4.68;3.70;;;;;;;;;;5035477;28;20100;-79
2023/04/27 14:26:50;;;;;;;8.40;4.03;;;;;;;;;;5034325;28;20487;-79
2023/04/27 14:29:16;;;;;;;5.65;3.92;;;;;;;;;;5034195;28;20029;-78
2023/04/27 14:31:43;;;;;;;5.75;3.97;;;;;;;;;;5032756;28;20571;-79
2023/04/27 14:34:09;;;;;;;6.53;3.90;;;;;;;;;;5031456;28;20068;-79
2023/04/27 14:36:35;;;;;;;5.80;3.83;;;;;;;;;;5042108;28;20078;-80
2023/04/27 14:39:29;;;;;;;6.97;3.83;;;;;;;;;;5039143;28;20044;-79
2023/04/27 14:41:56;;;;;;;5.55;3.90;;;;;;;;;;5034291;28;20033;-79
2023/04/27 14:44:23;;;;;;;6.03;3.67;;;;;;;;;;5035981;28;20099;-80
2023/04/27 14:46:49;;;;;;;5.43;3.60;;;;;;;;;;5034698;28;20025;-79
2023/04/27 14:49:15;;;;;;;7.10;4.18;;;;;;;;;;5033757;28;20561;-78